createdAt,value
2023-02-14T00:03:36.925Z,3.74
2023-02-14T00:07:49.306Z,3.47
2023-02-14T00:12:01.685Z,3.51
2023-02-14T00:16:14.969Z,3.27
2023-02-14T00:20:28.531Z,3.25
2023-02-14T00:24:40.902Z,3.14
2023-02-14T00:28:53.197Z,3.28
2023-02-14T00:33:05.515Z,3.33
2023-02-14T00:37:17.912Z,3.19
2023-02-14T00:41:30.646Z,3.11
2023-02-14T00:45:43.111Z,3.25
2023-02-14T00:49:55.645Z,3.08
2023-02-14T00:54:08.112Z,2.97
2023-02-14T00:58:20.535Z,2.90
2023-02-14T01:02:32.907Z,2.86
2023-02-14T01:06:45.317Z,2.90
2023-02-14T01:10:58.962Z,2.90
2023-02-14T01:15:12.116Z,3.01
2023-02-14T01:19:24.439Z,3.14
2023-02-14T01:23:36.793Z,3.63
2023-02-14T01:27:49.247Z,3.45
2023-02-14T01:32:01.730Z,3.21
2023-02-14T01:36:26.838Z,2.99
2023-02-14T01:40:44.967Z,2.75
2023-02-14T01:45:09.115Z,2.62
2023-02-14T01:49:36.075Z,2.32
2023-02-14T01:53:49.480Z,2.20
2023-02-14T01:58:10.043Z,2.70
2023-02-14T02:02:24.171Z,2.90
2023-02-14T02:06:40.741Z,2.46
2023-02-14T02:10:53.093Z,2.25
2023-02-14T02:15:08.275Z,2.08
2023-02-14T02:19:20.563Z,1.99
2023-02-14T02:24:06.953Z,2.13
2023-02-14T02:29:01.418Z,2.15
2023-02-14T02:34:03.014Z,2.08
2023-02-14T02:38:52.999Z,2.01
2023-02-14T02:43:32.739Z,1.89
2023-02-14T02:48:04.596Z,1.73
2023-02-14T02:53:04.036Z,1.57
2023-02-14T02:57:27.179Z,1.45
2023-02-14T03:01:42.740Z,1.41
2023-02-14T03:05:55.896Z,1.49
2023-02-14T03:10:21.388Z,1.60
2023-02-14T03:14:59.991Z,2.60
2023-02-14T03:19:25.923Z,2.34
2023-02-14T03:23:59.939Z,2.23
2023-02-14T03:28:19.750Z,2.36
2023-02-14T03:33:04.814Z,2.83
2023-02-14T03:37:42.583Z,2.55
2023-02-14T03:42:06.431Z,2.64
2023-02-14T03:46:38.246Z,2.75
2023-02-14T03:50:53.028Z,2.67
2023-02-14T03:55:08.319Z,2.71
2023-02-14T03:59:29.161Z,2.42
2023-02-14T04:03:43.378Z,2.31
2023-02-14T04:07:57.963Z,2.01
2023-02-14T04:12:11.225Z,1.92
2023-02-14T04:16:23.638Z,2.01
2023-02-14T04:20:37.397Z,2.20
2023-02-14T04:24:49.907Z,2.12
2023-02-14T04:29:02.327Z,2.90
2023-02-14T04:33:14.736Z,2.96
2023-02-14T04:37:27.347Z,2.70
2023-02-14T04:41:39.682Z,2.94
2023-02-14T04:45:52.057Z,2.63
2023-02-14T04:50:04.880Z,2.45
2023-02-14T04:54:17.268Z,2.29
2023-02-14T04:58:29.679Z,2.24
2023-02-14T05:02:41.921Z,2.78
2023-02-14T05:06:54.272Z,2.86
2023-02-14T05:11:06.845Z,2.83
2023-02-14T05:15:19.120Z,2.72
2023-02-14T05:19:31.408Z,2.62
2023-02-14T05:23:44.864Z,2.46
2023-02-14T05:27:58.410Z,2.16
2023-02-14T05:32:12.356Z,1.92
2023-02-14T05:36:26.570Z,1.56
2023-02-14T05:40:43.308Z,1.43
2023-02-14T05:44:56.574Z,1.73
2023-02-14T05:49:12.094Z,2.46
2023-02-14T05:53:24.590Z,2.60
2023-02-14T05:57:37.197Z,2.49
2023-02-14T06:01:49.604Z,2.53
2023-02-14T06:06:02.050Z,2.74
2023-02-14T06:10:14.489Z,2.85
2023-02-14T06:14:27.072Z,2.86
2023-02-14T06:18:39.525Z,2.77
2023-02-14T06:22:52.365Z,2.83
2023-02-14T06:27:04.682Z,2.84
2023-02-14T06:31:18.872Z,2.73
2023-02-14T06:35:31.530Z,2.71
2023-02-14T06:39:44.046Z,2.83
2023-02-14T06:43:56.637Z,2.79
2023-02-14T06:48:09.081Z,1.96
2023-02-14T06:52:21.481Z,2.04
2023-02-14T06:56:33.901Z,2.72
2023-02-14T07:00:47.181Z,2.82
2023-02-14T07:04:59.576Z,2.37
2023-02-14T07:09:11.904Z,2.31
2023-02-14T07:13:25.209Z,2.55
2023-02-14T07:17:38.138Z,2.62
2023-02-14T07:21:50.499Z,2.77
2023-02-14T07:26:04.011Z,2.95
2023-02-14T07:30:16.835Z,3.32
2023-02-14T07:34:29.195Z,3.66
2023-02-14T07:38:41.640Z,3.94
2023-02-14T07:42:55.929Z,3.98
2023-02-14T07:47:09.706Z,4.05
2023-02-14T07:51:22.200Z,4.24
2023-02-14T07:55:35.138Z,4.25
2023-02-14T07:59:48.766Z,4.28
2023-02-14T08:04:01.288Z,4.85
2023-02-14T08:08:13.604Z,4.75
2023-02-14T08:12:44.456Z,4.81
2023-02-14T08:16:56.891Z,5.21
2023-02-14T08:21:11.224Z,5.65
2023-02-14T08:25:23.603Z,5.90
2023-02-14T08:29:36.105Z,5.79
2023-02-14T08:33:49.415Z,7.23
2023-02-14T08:38:02.405Z,7.38
2023-02-14T08:42:14.894Z,7.75
2023-02-14T08:46:27.511Z,7.74
2023-02-14T08:50:41.102Z,8.04
2023-02-14T08:54:53.425Z,8.24
2023-02-14T08:59:05.861Z,8.32
2023-02-14T09:03:18.464Z,8.53
2023-02-14T09:07:31.172Z,8.51
2023-02-14T09:11:43.971Z,8.67
2023-02-14T09:15:56.869Z,9.36
2023-02-14T09:20:11.791Z,9.61
2023-02-14T09:24:26.999Z,10.07
2023-02-14T09:28:40.349Z,10.05
2023-02-14T09:32:54.334Z,10.36
2023-02-14T09:37:25.420Z,10.61
2023-02-14T09:42:10.858Z,10.79
2023-02-14T09:46:25.586Z,10.76
2023-02-14T09:50:52.101Z,11.43
2023-02-14T09:55:05.047Z,11.40
2023-02-14T09:59:20.578Z,11.35
2023-02-14T10:03:55.572Z,12.26
2023-02-14T10:08:36.885Z,12.33
2023-02-14T10:13:01.090Z,11.48
2023-02-14T10:17:39.288Z,12.60
2023-02-14T10:22:02.573Z,12.21
2023-02-14T10:26:28.511Z,12.06
2023-02-14T10:30:50.933Z,12.54
2023-02-14T10:35:12.842Z,12.62
2023-02-14T10:39:40.373Z,13.03
2023-02-14T10:44:24.597Z,12.92
2023-02-14T10:48:59.884Z,13.07
2023-02-14T10:53:31.179Z,12.86
2023-02-14T10:57:48.414Z,13.31
2023-02-14T11:02:01.970Z,12.27
2023-02-14T11:06:14.711Z,12.95
2023-02-14T11:10:32.418Z,13.50
2023-02-14T11:14:44.722Z,13.47
2023-02-14T11:19:20.323Z,13.82
2023-02-14T11:23:35.393Z,14.34
2023-02-14T11:27:51.224Z,13.61
2023-02-14T11:32:08.825Z,13.91
2023-02-14T11:36:21.684Z,14.03
2023-02-14T11:40:37.281Z,13.61
2023-02-14T11:44:56.821Z,13.77
2023-02-14T11:49:31.084Z,14.21
2023-02-14T11:53:56.233Z,14.07
2023-02-14T11:58:18.392Z,14.34
2023-02-14T12:02:43.670Z,14.76
2023-02-14T12:06:56.566Z,14.45
2023-02-14T12:11:27.604Z,14.48
2023-02-14T12:15:52.537Z,14.59
2023-02-14T12:20:35.537Z,15.18
2023-02-14T12:25:10.536Z,15.49
2023-02-14T12:29:51.704Z,15.52
2023-02-14T12:34:06.155Z,14.96
2023-02-14T12:38:50.971Z,14.48
2023-02-14T12:43:40.706Z,14.34
2023-02-14T12:48:06.280Z,14.11
2023-02-14T12:52:55.753Z,14.04
2023-02-14T12:57:29.413Z,14.27
2023-02-14T13:01:49.917Z,13.82
2023-02-14T13:06:08.490Z,14.19
2023-02-14T13:10:31.295Z,13.55
2023-02-14T13:15:16.313Z,13.37
2023-02-14T13:19:38.112Z,13.33
2023-02-14T13:23:55.317Z,13.38
2023-02-14T13:28:13.273Z,13.49
2023-02-14T13:32:29.414Z,13.63
2023-02-14T13:36:44.693Z,13.20
2023-02-14T13:40:59.701Z,13.24
2023-02-14T13:45:41.416Z,13.34
2023-02-14T13:50:03.759Z,13.78
2023-02-14T13:54:29.393Z,13.53
2023-02-14T13:58:53.740Z,13.59
2023-02-14T14:03:07.864Z,13.65
2023-02-14T14:07:27.196Z,13.74
2023-02-14T14:11:39.475Z,13.58
2023-02-14T14:16:27.203Z,13.53
2023-02-14T14:21:00.252Z,13.47
2023-02-14T14:25:14.299Z,13.12
2023-02-14T14:29:38.637Z,13.09
2023-02-14T14:33:59.557Z,12.94
2023-02-14T14:38:14.577Z,12.90
2023-02-14T14:42:31.086Z,12.60
2023-02-14T14:46:43.540Z,12.43
2023-02-14T14:50:56.361Z,12.41
2023-02-14T14:55:16.760Z,12.35
2023-02-14T14:59:40.746Z,12.08
2023-02-14T15:03:53.186Z,12.30
2023-02-14T15:08:23.942Z,12.26
2023-02-14T15:12:55.627Z,12.19
2023-02-14T15:17:35.725Z,12.17
2023-02-14T15:21:48.303Z,12.00
2023-02-14T15:26:01.652Z,11.88
2023-02-14T15:30:20.375Z,11.76
2023-02-14T15:34:38.567Z,11.63
2023-02-14T15:38:53.256Z,11.45
2023-02-14T15:43:31.257Z,11.27
2023-02-14T15:47:46.209Z,11.15
2023-02-14T15:52:02.710Z,11.00
2023-02-14T15:56:34.008Z,10.86
2023-02-14T16:00:49.011Z,10.74
2023-02-14T16:05:17.545Z,10.59
2023-02-14T16:09:34.583Z,10.46
2023-02-14T16:13:47.403Z,10.22
2023-02-14T16:18:01.392Z,10.03
2023-02-14T16:22:26.128Z,9.91
2023-02-14T16:26:44.212Z,9.79
2023-02-14T16:30:59.246Z,9.57
2023-02-14T16:35:20.107Z,9.49
2023-02-14T16:39:32.685Z,9.25
2023-02-14T16:43:46.319Z,8.98
2023-02-14T16:47:58.760Z,8.95
2023-02-14T16:52:25.988Z,8.99
2023-02-14T16:57:01.738Z,9.01
2023-02-14T17:01:15.737Z,8.79
2023-02-14T17:05:33.048Z,8.40
2023-02-14T17:09:53.073Z,8.18
2023-02-14T17:14:06.403Z,7.86
2023-02-14T17:18:21.814Z,7.90
2023-02-14T17:22:35.313Z,7.83
2023-02-14T17:26:48.586Z,7.61
2023-02-14T17:31:01.329Z,7.57
2023-02-14T17:35:15.033Z,7.49
2023-02-14T17:39:27.426Z,7.52
2023-02-14T17:43:39.836Z,7.57
2023-02-14T17:47:52.660Z,7.38
2023-02-14T17:52:05.190Z,7.62
2023-02-14T17:56:22.265Z,7.83
2023-02-14T18:00:35.175Z,7.49
2023-02-14T18:04:48.759Z,7.66
2023-02-14T18:09:05.789Z,7.88
2023-02-14T18:13:18.460Z,7.99
2023-02-14T18:17:30.970Z,7.52
2023-02-14T18:21:45.490Z,7.75
2023-02-14T18:26:01.417Z,7.33
2023-02-14T18:30:14.235Z,7.39
2023-02-14T18:34:27.206Z,7.04
2023-02-14T18:38:40.491Z,7.06
2023-02-14T18:42:54.972Z,7.40
2023-02-14T18:47:07.575Z,7.38
2023-02-14T18:51:28.591Z,7.15
2023-02-14T18:55:41.017Z,7.01
2023-02-14T18:59:53.816Z,6.85
2023-02-14T19:04:08.963Z,6.66
2023-02-14T19:08:21.313Z,6.62
2023-02-14T19:12:35.095Z,6.43
2023-02-14T19:16:54.342Z,6.38
2023-02-14T19:21:14.876Z,6.17
2023-02-14T19:25:28.611Z,5.32
2023-02-14T19:29:41.362Z,5.63
2023-02-14T19:33:53.777Z,6.03
2023-02-14T19:38:07.226Z,6.12
2023-02-14T19:42:19.611Z,6.00
2023-02-14T19:46:32.661Z,6.10
2023-02-14T19:50:47.102Z,5.91
2023-02-14T19:55:03.005Z,5.10
2023-02-14T19:59:20.524Z,4.49
2023-02-14T20:03:33.627Z,4.46
2023-02-14T20:07:49.532Z,5.67
2023-02-14T20:12:02.038Z,5.94
2023-02-14T20:16:16.972Z,5.77
2023-02-14T20:20:51.630Z,5.51
2023-02-14T20:25:05.897Z,5.73
2023-02-14T20:29:20.142Z,5.14
2023-02-14T20:33:33.651Z,4.48
2023-02-14T20:37:46.081Z,4.29
2023-02-14T20:41:59.787Z,4.10
2023-02-14T20:46:12.387Z,3.93
2023-02-14T20:50:24.748Z,3.78
2023-02-14T20:54:38.866Z,4.61
2023-02-14T20:58:53.591Z,4.53
2023-02-14T21:03:06.376Z,4.23
2023-02-14T21:07:19.700Z,4.21
2023-02-14T21:11:32.973Z,4.01
2023-02-14T21:15:45.371Z,3.87
2023-02-14T21:19:58.500Z,3.75
2023-02-14T21:24:18.708Z,3.36
2023-02-14T21:28:31.275Z,2.98
2023-02-14T21:32:43.514Z,2.83
2023-02-14T21:36:56.572Z,3.14
2023-02-14T21:41:14.058Z,3.70
2023-02-14T21:45:44.880Z,4.01
2023-02-14T21:50:15.854Z,3.58
2023-02-14T21:54:28.395Z,3.34
2023-02-14T21:58:41.337Z,3.17
2023-02-14T22:02:53.743Z,3.13
2023-02-14T22:07:07.379Z,4.05
2023-02-14T22:11:20.120Z,3.33
2023-02-14T22:15:34.013Z,3.27
2023-02-14T22:19:48.668Z,3.02
2023-02-14T22:24:01.780Z,3.14
2023-02-14T22:28:14.077Z,3.21
2023-02-14T22:32:27.502Z,3.64
2023-02-14T22:36:40.028Z,3.68
2023-02-14T22:41:00.284Z,3.11
2023-02-14T22:45:16.485Z,3.02
2023-02-14T22:49:29.704Z,2.98
2023-02-14T22:53:43.110Z,3.26
2023-02-14T22:57:55.482Z,3.63
2023-02-14T23:02:10.020Z,3.67
2023-02-14T23:06:23.348Z,3.05
2023-02-14T23:10:35.717Z,3.47
2023-02-14T23:15:06.659Z,3.30
2023-02-14T23:19:43.896Z,2.73
2023-02-14T23:23:56.225Z,3.41
2023-02-14T23:28:09.696Z,3.05
2023-02-14T23:32:22.159Z,2.96
2023-02-14T23:36:35.925Z,2.77
2023-02-14T23:41:06.830Z,2.73
2023-02-14T23:45:35.428Z,2.90
2023-02-14T23:49:48.068Z,3.16
2023-02-14T23:54:03.089Z,2.91
2023-02-14T23:58:16.479Z,2.88
